This is the latest recevied weather packets stored in our database for station/object OE3EMC-13. If no packets are shown the sender has not sent any weather packets the latest 10 day(s).
| Time | Temp. | Humidity | Pressure | Rain* | Wind** | Luminosity | Snow |
|---|---|---|---|---|---|---|---|
| 1777750993 | 11.11° C | 52% | 1100 hPa | 0 mm | - | - | - |
| 1777750392 | 9.44° C | 54% | 1100 hPa | 0 mm | - | - | - |
| 1777749792 | 9.44° C | 54% | 1100 hPa | 0 mm | - | - | - |
| 1777749193 | 10° C | 54% | 1100 hPa | 0 mm | - | - | - |
| 1777748592 | 10° C | 54% | 1100 hPa | 0 mm | - | - | - |
| 1777747993 | 11.67° C | 50% | 1100 hPa | 0 mm | - | - | - |
| 1777747391 | 11.67° C | 50% | 1100 hPa | 0 mm | - | - | - |
| 1777746793 | 13.33° C | 45% | 1100 hPa | 0 mm | - | - | - |
| 1777746191 | 13.33° C | 45% | 1100 hPa | 0 mm | - | - | - |
| 1777745591 | 15.56° C | 39% | 1100 hPa | 0 mm | - | - | - |
| 1777744993 | 15.56° C | 39% | 1100 hPa | 0 mm | - | - | - |
| 1777744391 | 17.78° C | 36% | 1100 hPa | 0 mm | - | - | - |
| 1777743791 | 17.78° C | 36% | 1100 hPa | 0 mm | - | - | - |
| 1777743192 | 19.44° C | 33% | 1100 hPa | 0 mm | - | - | - |
| 1777742591 | 19.44° C | 33% | 1100 hPa | 0 mm | - | - | - |
| 1777741990 | 21.11° C | 31% | 1100 hPa | 0 mm | - | - | - |
| 1777741390 | 21.11° C | 31% | 1100 hPa | 0 mm | - | - | - |
| 1777740791 | 22.22° C | 29% | 1100 hPa | 0 mm | - | - | - |
| 1777740191 | 22.22° C | 29% | 1100 hPa | 0 mm | - | - | - |
| 1777739591 | 24.44° C | 27% | 1100 hPa | 0 mm | - | - | - |
| 1777738989 | 24.44° C | 27% | 1100 hPa | 0 mm | - | - | - |
| 1777738390 | 25.56° C | 25% | 1100 hPa | 0 mm | - | - | - |
| 1777737789 | 25.56° C | 25% | 1100 hPa | 0 mm | - | - | - |
| 1777737194 | 26.11° C | 26% | 1100 hPa | 0 mm | - | - | - |
| 1777736594 | 26.11° C | 26% | 1100 hPa | 0 mm | - | - | - |
* Rain latest hour (hover to see other rain measurements)
** Current wind speed in m/s (hover to see current wind gust speed)